sensor_id;sensor_type;location;lat;lon;timestamp;P1;durP1;ratioP1;P2;durP2;ratioP2
32535;SDS011;18974;50.838;4.636;2023-11-19T04:27:23;37.78;;;5.78;;
32535;SDS011;18974;50.838;4.636;2023-11-19T04:29:50;51.47;;;5.72;;
32535;SDS011;18974;50.838;4.636;2023-11-19T04:32:15;44.30;;;5.57;;
32535;SDS011;18974;50.838;4.636;2023-11-19T04:34:41;36.45;;;5.90;;
32535;SDS011;18974;50.838;4.636;2023-11-19T04:37:10;36.95;;;5.70;;
32535;SDS011;18974;50.838;4.636;2023-11-19T04:39:35;38.13;;;5.65;;
32535;SDS011;18974;50.838;4.636;2023-11-19T04:42:02;38.35;;;5.88;;
32535;SDS011;18974;50.838;4.636;2023-11-19T04:44:29;36.13;;;5.43;;
32535;SDS011;18974;50.838;4.636;2023-11-19T04:46:55;41.50;;;5.22;;
32535;SDS011;18974;50.838;4.636;2023-11-19T04:49:21;33.38;;;5.65;;
32535;SDS011;18974;50.838;4.636;2023-11-19T04:51:46;34.45;;;6.55;;
32535;SDS011;18974;50.838;4.636;2023-11-19T04:54:12;37.20;;;7.57;;
32535;SDS011;18974;50.838;4.636;2023-11-19T04:56:39;38.33;;;5.80;;
32535;SDS011;18974;50.838;4.636;2023-11-19T04:59:05;39.47;;;5.88;;
32535;SDS011;18974;50.838;4.636;2023-11-19T05:01:31;49.70;;;7.07;;
32535;SDS011;18974;50.838;4.636;2023-11-19T05:03:58;43.95;;;6.57;;
32535;SDS011;18974;50.838;4.636;2023-11-19T05:06:29;43.67;;;6.82;;
32535;SDS011;18974;50.838;4.636;2023-11-19T05:08:56;48.17;;;6.07;;
32535;SDS011;18974;50.838;4.636;2023-11-19T05:11:23;34.33;;;6.10;;
32535;SDS011;18974;50.838;4.636;2023-11-19T05:13:49;39.70;;;6.20;;
32535;SDS011;18974;50.838;4.636;2023-11-19T05:16:15;45.20;;;6.50;;
32535;SDS011;18974;50.838;4.636;2023-11-19T05:18:42;35.33;;;6.05;;
32535;SDS011;18974;50.838;4.636;2023-11-19T05:21:08;34.47;;;5.30;;
32535;SDS011;18974;50.838;4.636;2023-11-19T05:23:34;36.78;;;6.90;;
32535;SDS011;18974;50.838;4.636;2023-11-19T05:26:02;29.83;;;5.47;;
32535;SDS011;18974;50.838;4.636;2023-11-19T05:28:28;35.42;;;5.60;;
32535;SDS011;18974;50.838;4.636;2023-11-19T05:30:54;34.42;;;7.13;;
32535;SDS011;18974;50.838;4.636;2023-11-19T05:33:20;38.13;;;6.47;;
32535;SDS011;18974;50.838;4.636;2023-11-19T05:35:46;36.78;;;5.82;;
32535;SDS011;18974;50.838;4.636;2023-11-19T05:38:12;39.88;;;5.55;;
32535;SDS011;18974;50.838;4.636;2023-11-19T05:40:38;43.22;;;6.72;;
32535;SDS011;18974;50.838;4.636;2023-11-19T05:43:04;37.25;;;6.60;;
32535;SDS011;18974;50.838;4.636;2023-11-19T05:45:30;34.38;;;6.00;;
32535;SDS011;18974;50.838;4.636;2023-11-19T05:47:57;40.75;;;6.50;;
32535;SDS011;18974;50.838;4.636;2023-11-19T05:50:22;44.17;;;6.20;;
32535;SDS011;18974;50.838;4.636;2023-11-19T05:52:48;42.85;;;6.40;;
32535;SDS011;18974;50.838;4.636;2023-11-19T05:55:14;36.50;;;6.15;;
32535;SDS011;18974;50.838;4.636;2023-11-19T05:57:40;42.10;;;6.40;;
32535;SDS011;18974;50.838;4.636;2023-11-19T06:00:06;40.25;;;6.55;;
32535;SDS011;18974;50.838;4.636;2023-11-19T06:02:33;42.00;;;5.63;;
32535;SDS011;18974;50.838;4.636;2023-11-19T06:04:59;49.13;;;7.40;;
32535;SDS011;18974;50.838;4.636;2023-11-19T06:07:27;44.92;;;6.45;;
32535;SDS011;18974;50.838;4.636;2023-11-19T06:09:53;40.17;;;5.95;;
32535;SDS011;18974;50.838;4.636;2023-11-19T06:12:18;42.47;;;6.60;;
32535;SDS011;18974;50.838;4.636;2023-11-19T06:14:44;46.40;;;6.90;;
32535;SDS011;18974;50.838;4.636;2023-11-19T06:17:10;45.72;;;6.78;;
32535;SDS011;18974;50.838;4.636;2023-11-19T06:19:36;39.08;;;5.72;;
32535;SDS011;18974;50.838;4.636;2023-11-19T06:22:03;47.28;;;6.40;;
32535;SDS011;18974;50.838;4.636;2023-11-19T06:24:29;47.55;;;6.97;;
32535;SDS011;18974;50.838;4.636;2023-11-19T06:26:54;47.95;;;6.63;;
32535;SDS011;18974;50.838;4.636;2023-11-19T06:29:20;42.42;;;5.97;;
32535;SDS011;18974;50.838;4.636;2023-11-19T06:31:46;45.00;;;7.15;;
32535;SDS011;18974;50.838;4.636;2023-11-19T06:34:14;53.38;;;6.38;;
32535;SDS011;18974;50.838;4.636;2023-11-19T06:36:39;43.42;;;5.90;;
32535;SDS011;18974;50.838;4.636;2023-11-19T06:39:06;40.40;;;5.72;;
32535;SDS011;18974;50.838;4.636;2023-11-19T06:41:31;42.65;;;5.93;;
32535;SDS011;18974;50.838;4.636;2023-11-19T06:43:57;38.90;;;5.22;;
32535;SDS011;18974;50.838;4.636;2023-11-19T06:46:23;35.85;;;5.25;;
32535;SDS011;18974;50.838;4.636;2023-11-19T06:48:49;40.88;;;6.35;;
32535;SDS011;18974;50.838;4.636;2023-11-19T06:51:14;42.80;;;6.90;;
32535;SDS011;18974;50.838;4.636;2023-11-19T06:53:40;38.85;;;6.47;;
32535;SDS011;18974;50.838;4.636;2023-11-19T06:59:04;39.13;;;6.18;;
32535;SDS011;18974;50.838;4.636;2023-11-19T07:01:34;42.25;;;5.82;;
32535;SDS011;18974;50.838;4.636;2023-11-19T07:04:01;45.08;;;5.82;;
32535;SDS011;18974;50.838;4.636;2023-11-19T07:06:33;39.40;;;5.30;;
32535;SDS011;18974;50.838;4.636;2023-11-19T07:08:59;41.42;;;5.75;;
32535;SDS011;18974;50.838;4.636;2023-11-19T07:11:27;44.08;;;5.68;;
32535;SDS011;18974;50.838;4.636;2023-11-19T07:13:54;40.75;;;6.10;;
32535;SDS011;18974;50.838;4.636;2023-11-19T07:16:19;52.95;;;7.07;;
32535;SDS011;18974;50.838;4.636;2023-11-19T07:18:47;41.05;;;6.55;;
32535;SDS011;18974;50.838;4.636;2023-11-19T07:21:15;46.03;;;6.28;;
32535;SDS011;18974;50.838;4.636;2023-11-19T07:23:40;47.78;;;6.97;;
32535;SDS011;18974;50.838;4.636;2023-11-19T07:26:06;35.22;;;7.03;;
32535;SDS011;18974;50.838;4.636;2023-11-19T07:28:35;41.90;;;6.72;;
32535;SDS011;18974;50.838;4.636;2023-11-19T07:31:01;42.53;;;6.30;;
32535;SDS011;18974;50.838;4.636;2023-11-19T07:33:27;45.60;;;6.20;;
32535;SDS011;18974;50.838;4.636;2023-11-19T07:35:53;45.30;;;6.68;;
32535;SDS011;18974;50.838;4.636;2023-11-19T07:38:18;44.15;;;6.50;;
32535;SDS011;18974;50.838;4.636;2023-11-19T07:40:44;36.38;;;5.40;;
32535;SDS011;18974;50.838;4.636;2023-11-19T07:43:10;49.17;;;7.72;;
32535;SDS011;18974;50.838;4.636;2023-11-19T07:45:35;48.90;;;6.95;;
32535;SDS011;18974;50.838;4.636;2023-11-19T07:48:01;46.63;;;6.35;;
32535;SDS011;18974;50.838;4.636;2023-11-19T07:50:27;37.60;;;6.65;;
32535;SDS011;18974;50.838;4.636;2023-11-19T07:52:52;43.63;;;6.53;;
32535;SDS011;18974;50.838;4.636;2023-11-19T07:55:18;53.75;;;6.95;;
32535;SDS011;18974;50.838;4.636;2023-11-19T07:57:44;55.92;;;7.65;;
32535;SDS011;18974;50.838;4.636;2023-11-19T08:00:10;31.50;;;6.90;;
32535;SDS011;18974;50.838;4.636;2023-11-19T08:02:39;42.85;;;6.85;;
32535;SDS011;18974;50.838;4.636;2023-11-19T08:33:19;47.08;;;5.93;;
32535;SDS011;18974;50.838;4.636;2023-11-19T08:35:47;39.53;;;6.07;;
32535;SDS011;18974;50.838;4.636;2023-11-19T08:38:13;46.70;;;8.05;;
32535;SDS011;18974;50.838;4.636;2023-11-19T08:40:39;36.25;;;6.22;;
32535;SDS011;18974;50.838;4.636;2023-11-19T08:43:04;39.70;;;7.13;;
32535;SDS011;18974;50.838;4.636;2023-11-19T08:45:31;37.08;;;5.88;;
32535;SDS011;18974;50.838;4.636;2023-11-19T08:47:57;39.53;;;6.10;;
32535;SDS011;18974;50.838;4.636;2023-11-19T08:50:24;40.53;;;5.97;;
32535;SDS011;18974;50.838;4.636;2023-11-19T08:52:50;43.42;;;6.50;;
32535;SDS011;18974;50.838;4.636;2023-11-19T08:55:16;33.85;;;6.35;;
32535;SDS011;18974;50.838;4.636;2023-11-19T08:57:41;37.55;;;6.40;;
32535;SDS011;18974;50.838;4.636;2023-11-19T09:00:07;41.97;;;7.03;;
32535;SDS011;18974;50.838;4.636;2023-11-19T09:02:34;37.90;;;5.95;;
32535;SDS011;18974;50.838;4.636;2023-11-19T09:05:02;40.35;;;6.00;;
32535;SDS011;18974;50.838;4.636;2023-11-19T09:07:29;42.30;;;7.03;;
32535;SDS011;18974;50.838;4.636;2023-11-19T09:09:54;47.70;;;6.50;;
32535;SDS011;18974;50.838;4.636;2023-11-19T09:12:20;33.78;;;5.07;;
32535;SDS011;18974;50.838;4.636;2023-11-19T09:14:46;44.22;;;7.13;;
32535;SDS011;18974;50.838;4.636;2023-11-19T09:17:11;34.78;;;5.38;;
32535;SDS011;18974;50.838;4.636;2023-11-19T09:19:37;39.92;;;7.05;;
32535;SDS011;18974;50.838;4.636;2023-11-19T09:22:03;41.20;;;5.75;;
32535;SDS011;18974;50.838;4.636;2023-11-19T09:24:29;39.00;;;6.95;;
32535;SDS011;18974;50.838;4.636;2023-11-19T09:26:54;38.80;;;6.45;;
32535;SDS011;18974;50.838;4.636;2023-11-19T09:29:25;36.40;;;5.45;;
32535;SDS011;18974;50.838;4.636;2023-11-19T09:31:50;36.08;;;6.28;;
32535;SDS011;18974;50.838;4.636;2023-11-19T09:34:16;34.13;;;5.65;;
32535;SDS011;18974;50.838;4.636;2023-11-19T09:36:42;29.92;;;5.32;;
32535;SDS011;18974;50.838;4.636;2023-11-19T09:39:09;30.75;;;5.40;;
32535;SDS011;18974;50.838;4.636;2023-11-19T09:41:43;36.22;;;5.80;;
32535;SDS011;18974;50.838;4.636;2023-11-19T09:44:10;36.35;;;5.35;;
32535;SDS011;18974;50.838;4.636;2023-11-19T09:46:38;38.10;;;5.00;;
32535;SDS011;18974;50.838;4.636;2023-11-19T09:49:06;25.73;;;4.78;;
32535;SDS011;18974;50.838;4.636;2023-11-19T09:51:34;25.77;;;4.80;;
32535;SDS011;18974;50.838;4.636;2023-11-19T09:54:01;33.30;;;6.07;;
32535;SDS011;18974;50.838;4.636;2023-11-19T09:56:27;23.17;;;4.88;;
32535;SDS011;18974;50.838;4.636;2023-11-19T09:58:54;32.97;;;5.25;;
32535;SDS011;18974;50.838;4.636;2023-11-19T10:01:20;27.02;;;5.00;;
32535;SDS011;18974;50.838;4.636;2023-11-19T10:03:47;28.65;;;4.55;;
32535;SDS011;18974;50.838;4.636;2023-11-19T10:06:14;34.30;;;5.43;;
32535;SDS011;18974;50.838;4.636;2023-11-19T10:08:41;31.63;;;5.82;;
32535;SDS011;18974;50.838;4.636;2023-11-19T10:11:08;29.52;;;5.38;;
32535;SDS011;18974;50.838;4.636;2023-11-19T10:13:36;24.55;;;5.13;;
32535;SDS011;18974;50.838;4.636;2023-11-19T10:16:17;29.30;;;4.68;;
32535;SDS011;18974;50.838;4.636;2023-11-19T10:18:45;33.20;;;5.93;;
32535;SDS011;18974;50.838;4.636;2023-11-19T10:21:12;30.95;;;5.40;;
32535;SDS011;18974;50.838;4.636;2023-11-19T10:23:51;31.92;;;5.72;;
32535;SDS011;18974;50.838;4.636;2023-11-19T10:26:19;26.30;;;5.15;;
32535;SDS011;18974;50.838;4.636;2023-11-19T10:28:46;33.90;;;5.97;;
32535;SDS011;18974;50.838;4.636;2023-11-19T10:31:16;35.80;;;5.45;;
32535;SDS011;18974;50.838;4.636;2023-11-19T10:33:43;35.38;;;5.40;;
32535;SDS011;18974;50.838;4.636;2023-11-19T10:36:10;29.83;;;5.35;;
32535;SDS011;18974;50.838;4.636;2023-11-19T10:38:37;31.25;;;4.95;;
32535;SDS011;18974;50.838;4.636;2023-11-19T10:41:03;31.23;;;5.63;;
32535;SDS011;18974;50.838;4.636;2023-11-19T10:43:30;33.95;;;5.15;;
32535;SDS011;18974;50.838;4.636;2023-11-19T10:46:12;38.05;;;5.72;;
32535;SDS011;18974;50.838;4.636;2023-11-19T10:48:39;31.48;;;5.78;;
32535;SDS011;18974;50.838;4.636;2023-11-19T10:51:06;28.55;;;5.15;;
32535;SDS011;18974;50.838;4.636;2023-11-19T10:53:37;24.35;;;5.03;;
32535;SDS011;18974;50.838;4.636;2023-11-19T10:56:06;22.33;;;4.00;;
32535;SDS011;18974;50.838;4.636;2023-11-19T10:58:36;19.63;;;4.30;;
32535;SDS011;18974;50.838;4.636;2023-11-19T11:01:16;29.40;;;4.50;;
32535;SDS011;18974;50.838;4.636;2023-11-19T11:03:48;26.77;;;4.20;;
32535;SDS011;18974;50.838;4.636;2023-11-19T11:06:18;22.00;;;4.35;;
32535;SDS011;18974;50.838;4.636;2023-11-19T11:08:44;18.25;;;4.75;;
32535;SDS011;18974;50.838;4.636;2023-11-19T11:11:11;23.05;;;4.63;;
32535;SDS011;18974;50.838;4.636;2023-11-19T11:13:42;22.83;;;4.57;;
32535;SDS011;18974;50.838;4.636;2023-11-19T11:16:09;30.25;;;5.20;;
32535;SDS011;18974;50.838;4.636;2023-11-19T11:18:36;28.42;;;5.80;;
32535;SDS011;18974;50.838;4.636;2023-11-19T11:23:36;26.58;;;5.20;;
32535;SDS011;18974;50.838;4.636;2023-11-19T11:28:43;31.17;;;5.65;;
32535;SDS011;18974;50.838;4.636;2023-11-19T11:37:17;32.78;;;5.13;;
32535;SDS011;18974;50.838;4.636;2023-11-19T11:39:46;24.40;;;5.10;;
32535;SDS011;18974;50.838;4.636;2023-11-19T11:44:59;28.92;;;5.57;;
32535;SDS011;18974;50.838;4.636;2023-11-19T11:47:25;31.13;;;5.13;;
32535;SDS011;18974;50.838;4.636;2023-11-19T11:50:15;28.20;;;5.45;;
32535;SDS011;18974;50.838;4.636;2023-11-19T11:55:26;26.27;;;5.10;;
32535;SDS011;18974;50.838;4.636;2023-11-19T11:57:52;29.92;;;5.43;;
32535;SDS011;18974;50.838;4.636;2023-11-19T12:00:22;28.02;;;5.75;;
32535;SDS011;18974;50.838;4.636;2023-11-19T12:02:51;29.90;;;5.32;;
32535;SDS011;18974;50.838;4.636;2023-11-19T12:05:19;28.60;;;5.50;;
32535;SDS011;18974;50.838;4.636;2023-11-19T12:07:54;29.30;;;5.15;;
32535;SDS011;18974;50.838;4.636;2023-11-19T12:10:20;34.22;;;5.38;;
32535;SDS011;18974;50.838;4.636;2023-11-19T12:12:47;36.28;;;5.63;;
32535;SDS011;18974;50.838;4.636;2023-11-19T12:15:13;20.88;;;4.13;;
32535;SDS011;18974;50.838;4.636;2023-11-19T12:17:43;25.02;;;5.20;;
32535;SDS011;18974;50.838;4.636;2023-11-19T12:20:14;23.30;;;4.70;;
32535;SDS011;18974;50.838;4.636;2023-11-19T12:22:42;31.20;;;4.85;;
32535;SDS011;18974;50.838;4.636;2023-11-19T12:25:09;20.52;;;4.40;;
32535;SDS011;18974;50.838;4.636;2023-11-19T12:27:37;18.17;;;4.18;;
32535;SDS011;18974;50.838;4.636;2023-11-19T12:30:05;23.27;;;4.63;;
32535;SDS011;18974;50.838;4.636;2023-11-19T12:35:24;31.92;;;4.63;;
32535;SDS011;18974;50.838;4.636;2023-11-19T12:37:50;20.95;;;3.72;;
32535;SDS011;18974;50.838;4.636;2023-11-19T12:40:17;29.15;;;4.78;;
32535;SDS011;18974;50.838;4.636;2023-11-19T12:42:46;26.52;;;4.63;;
32535;SDS011;18974;50.838;4.636;2023-11-19T12:45:16;22.40;;;3.97;;
32535;SDS011;18974;50.838;4.636;2023-11-19T12:47:44;33.28;;;5.55;;
32535;SDS011;18974;50.838;4.636;2023-11-19T12:50:12;30.08;;;4.43;;
32535;SDS011;18974;50.838;4.636;2023-11-19T12:52:37;29.45;;;6.25;;
32535;SDS011;18974;50.838;4.636;2023-11-19T12:57:52;29.85;;;4.93;;
32535;SDS011;18974;50.838;4.636;2023-11-19T13:00:20;31.63;;;5.25;;
32535;SDS011;18974;50.838;4.636;2023-11-19T13:02:51;32.35;;;4.75;;
32535;SDS011;18974;50.838;4.636;2023-11-19T13:08:02;33.40;;;5.45;;
32535;SDS011;18974;50.838;4.636;2023-11-19T13:10:30;31.50;;;5.78;;
32535;SDS011;18974;50.838;4.636;2023-11-19T13:13:04;27.60;;;6.20;;
32535;SDS011;18974;50.838;4.636;2023-11-19T13:15:31;29.33;;;5.72;;
32535;SDS011;18974;50.838;4.636;2023-11-19T13:17:58;21.48;;;4.93;;
32535;SDS011;18974;50.838;4.636;2023-11-19T13:20:25;30.90;;;5.50;;
32535;SDS011;18974;50.838;4.636;2023-11-19T13:22:57;28.02;;;5.10;;
32535;SDS011;18974;50.838;4.636;2023-11-19T13:25:24;24.55;;;4.10;;
32535;SDS011;18974;50.838;4.636;2023-11-19T13:27:54;32.83;;;4.95;;
32535;SDS011;18974;50.838;4.636;2023-11-19T13:30:20;23.77;;;4.95;;
32535;SDS011;18974;50.838;4.636;2023-11-19T13:32:50;28.90;;;4.85;;
32535;SDS011;18974;50.838;4.636;2023-11-19T13:35:16;33.53;;;5.07;;
32535;SDS011;18974;50.838;4.636;2023-11-19T13:37:42;29.85;;;4.88;;
32535;SDS011;18974;50.838;4.636;2023-11-19T13:40:09;24.50;;;4.47;;
32535;SDS011;18974;50.838;4.636;2023-11-19T13:42:38;32.03;;;5.70;;
32535;SDS011;18974;50.838;4.636;2023-11-19T13:45:11;34.50;;;5.63;;
32535;SDS011;18974;50.838;4.636;2023-11-19T13:50:05;26.67;;;5.53;;
32535;SDS011;18974;50.838;4.636;2023-11-19T13:52:35;29.95;;;6.00;;
32535;SDS011;18974;50.838;4.636;2023-11-19T13:55:03;29.85;;;4.70;;
32535;SDS011;18974;50.838;4.636;2023-11-19T13:57:31;30.58;;;5.50;;
32535;SDS011;18974;50.838;4.636;2023-11-19T13:59:57;28.70;;;5.47;;
32535;SDS011;18974;50.838;4.636;2023-11-19T14:02:22;33.10;;;5.93;;
32535;SDS011;18974;50.838;4.636;2023-11-19T14:04:48;28.70;;;5.50;;
32535;SDS011;18974;50.838;4.636;2023-11-19T14:07:13;25.67;;;5.13;;
32535;SDS011;18974;50.838;4.636;2023-11-19T14:09:41;28.00;;;5.35;;
32535;SDS011;18974;50.838;4.636;2023-11-19T14:12:07;35.42;;;5.93;;
32535;SDS011;18974;50.838;4.636;2023-11-19T14:14:34;37.85;;;5.85;;
32535;SDS011;18974;50.838;4.636;2023-11-19T14:17:01;33.78;;;6.65;;
32535;SDS011;18974;50.838;4.636;2023-11-19T14:19:28;38.15;;;5.97;;
32535;SDS011;18974;50.838;4.636;2023-11-19T14:21:54;26.88;;;4.50;;
32535;SDS011;18974;50.838;4.636;2023-11-19T14:24:19;30.38;;;4.78;;
32535;SDS011;18974;50.838;4.636;2023-11-19T14:26:45;30.38;;;4.93;;
32535;SDS011;18974;50.838;4.636;2023-11-19T14:29:12;26.90;;;5.20;;
32535;SDS011;18974;50.838;4.636;2023-11-19T14:31:38;32.30;;;6.38;;
32535;SDS011;18974;50.838;4.636;2023-11-19T14:34:04;32.55;;;5.65;;
32535;SDS011;18974;50.838;4.636;2023-11-19T14:36:30;43.15;;;6.38;;
32535;SDS011;18974;50.838;4.636;2023-11-19T14:38:56;37.40;;;6.82;;
32535;SDS011;18974;50.838;4.636;2023-11-19T14:41:23;32.42;;;5.40;;
32535;SDS011;18974;50.838;4.636;2023-11-19T14:43:49;28.20;;;5.18;;
32535;SDS011;18974;50.838;4.636;2023-11-19T14:46:15;36.38;;;6.75;;
32535;SDS011;18974;50.838;4.636;2023-11-19T14:48:40;32.45;;;6.20;;
32535;SDS011;18974;50.838;4.636;2023-11-19T14:51:06;26.50;;;5.50;;
32535;SDS011;18974;50.838;4.636;2023-11-19T14:53:32;29.88;;;6.30;;
32535;SDS011;18974;50.838;4.636;2023-11-19T14:55:58;36.42;;;5.90;;
32535;SDS011;18974;50.838;4.636;2023-11-19T14:58:23;41.67;;;6.28;;
32535;SDS011;18974;50.838;4.636;2023-11-19T15:00:51;27.73;;;5.72;;
32535;SDS011;18974;50.838;4.636;2023-11-19T15:03:17;36.47;;;5.53;;
32535;SDS011;18974;50.838;4.636;2023-11-19T15:05:44;33.15;;;5.18;;
32535;SDS011;18974;50.838;4.636;2023-11-19T15:08:11;46.33;;;7.18;;
32535;SDS011;18974;50.838;4.636;2023-11-19T15:10:37;36.58;;;5.90;;
32535;SDS011;18974;50.838;4.636;2023-11-19T15:13:03;32.92;;;5.82;;
32535;SDS011;18974;50.838;4.636;2023-11-19T15:15:29;33.55;;;5.35;;
32535;SDS011;18974;50.838;4.636;2023-11-19T15:17:55;35.53;;;5.75;;
32535;SDS011;18974;50.838;4.636;2023-11-19T15:20:20;35.13;;;5.45;;
32535;SDS011;18974;50.838;4.636;2023-11-19T15:22:46;34.47;;;5.57;;
32535;SDS011;18974;50.838;4.636;2023-11-19T15:25:12;37.70;;;6.00;;
32535;SDS011;18974;50.838;4.636;2023-11-19T15:27:38;39.35;;;6.20;;
32535;SDS011;18974;50.838;4.636;2023-11-19T15:30:04;33.03;;;6.15;;
32535;SDS011;18974;50.838;4.636;2023-11-19T15:32:30;26.35;;;5.50;;
32535;SDS011;18974;50.838;4.636;2023-11-19T15:34:59;40.97;;;5.95;;
32535;SDS011;18974;50.838;4.636;2023-11-19T15:37:25;34.60;;;6.55;;
32535;SDS011;18974;50.838;4.636;2023-11-19T15:39:51;35.03;;;6.00;;
32535;SDS011;18974;50.838;4.636;2023-11-19T15:42:16;42.17;;;7.05;;
32535;SDS011;18974;50.838;4.636;2023-11-19T15:44:42;34.22;;;7.50;;
32535;SDS011;18974;50.838;4.636;2023-11-19T15:47:08;30.52;;;6.13;;
32535;SDS011;18974;50.838;4.636;2023-11-19T15:49:34;32.90;;;7.20;;
32535;SDS011;18974;50.838;4.636;2023-11-19T15:52:01;35.05;;;6.30;;
32535;SDS011;18974;50.838;4.636;2023-11-19T15:54:27;26.85;;;4.97;;
32535;SDS011;18974;50.838;4.636;2023-11-19T15:56:53;30.98;;;4.97;;
32535;SDS011;18974;50.838;4.636;2023-11-19T15:59:19;35.65;;;5.72;;
32535;SDS011;18974;50.838;4.636;2023-11-19T16:01:45;23.83;;;5.45;;
32535;SDS011;18974;50.838;4.636;2023-11-19T16:04:11;23.60;;;5.57;;
32535;SDS011;18974;50.838;4.636;2023-11-19T16:06:37;36.50;;;5.97;;
32535;SDS011;18974;50.838;4.636;2023-11-19T16:09:02;28.88;;;5.43;;
32535;SDS011;18974;50.838;4.636;2023-11-19T16:11:28;27.83;;;5.10;;
32535;SDS011;18974;50.838;4.636;2023-11-19T16:13:54;30.88;;;5.50;;
32535;SDS011;18974;50.838;4.636;2023-11-19T16:16:20;20.38;;;4.43;;
32535;SDS011;18974;50.838;4.636;2023-11-19T16:18:46;21.88;;;4.55;;
32535;SDS011;18974;50.838;4.636;2023-11-19T16:21:12;24.35;;;5.20;;
32535;SDS011;18974;50.838;4.636;2023-11-19T16:23:37;25.90;;;5.45;;
32535;SDS011;18974;50.838;4.636;2023-11-19T16:26:03;29.45;;;4.93;;
32535;SDS011;18974;50.838;4.636;2023-11-19T16:28:30;29.90;;;6.35;;
32535;SDS011;18974;50.838;4.636;2023-11-19T16:30:55;28.77;;;4.55;;
32535;SDS011;18974;50.838;4.636;2023-11-19T16:33:21;30.15;;;5.32;;
32535;SDS011;18974;50.838;4.636;2023-11-19T16:35:47;35.33;;;5.38;;
32535;SDS011;18974;50.838;4.636;2023-11-19T16:38:12;29.52;;;5.32;;
32535;SDS011;18974;50.838;4.636;2023-11-19T16:40:38;25.52;;;4.43;;
32535;SDS011;18974;50.838;4.636;2023-11-19T16:43:08;28.92;;;5.75;;
32535;SDS011;18974;50.838;4.636;2023-11-19T16:45:33;32.97;;;5.97;;
32535;SDS011;18974;50.838;4.636;2023-11-19T16:47:59;34.53;;;5.75;;
32535;SDS011;18974;50.838;4.636;2023-11-19T16:50:26;26.70;;;4.60;;
32535;SDS011;18974;50.838;4.636;2023-11-19T16:52:53;25.83;;;5.07;;
32535;SDS011;18974;50.838;4.636;2023-11-19T16:55:19;27.77;;;5.20;;
32535;SDS011;18974;50.838;4.636;2023-11-19T16:57:44;29.83;;;4.53;;
32535;SDS011;18974;50.838;4.636;2023-11-19T17:00:10;26.80;;;4.68;;
32535;SDS011;18974;50.838;4.636;2023-11-19T17:02:38;30.55;;;5.07;;
32535;SDS011;18974;50.838;4.636;2023-11-19T17:05:07;25.33;;;4.57;;
32535;SDS011;18974;50.838;4.636;2023-11-19T17:07:35;26.10;;;4.45;;
32535;SDS011;18974;50.838;4.636;2023-11-19T17:10:01;38.17;;;5.88;;
32535;SDS011;18974;50.838;4.636;2023-11-19T17:12:28;29.48;;;4.45;;
32535;SDS011;18974;50.838;4.636;2023-11-19T17:14:57;24.88;;;4.10;;
32535;SDS011;18974;50.838;4.636;2023-11-19T17:17:35;25.58;;;4.40;;
32535;SDS011;18974;50.838;4.636;2023-11-19T17:20:05;22.60;;;4.47;;
32535;SDS011;18974;50.838;4.636;2023-11-19T17:22:32;26.10;;;4.68;;
32535;SDS011;18974;50.838;4.636;2023-11-19T17:24:59;30.20;;;5.38;;
32535;SDS011;18974;50.838;4.636;2023-11-19T17:27:26;30.58;;;5.72;;
32535;SDS011;18974;50.838;4.636;2023-11-19T17:29:55;28.27;;;4.90;;
32535;SDS011;18974;50.838;4.636;2023-11-19T17:32:21;28.63;;;5.32;;
32535;SDS011;18974;50.838;4.636;2023-11-19T17:34:47;23.20;;;4.70;;
32535;SDS011;18974;50.838;4.636;2023-11-19T17:37:13;24.83;;;4.93;;
32535;SDS011;18974;50.838;4.636;2023-11-19T17:39:39;28.15;;;4.40;;
32535;SDS011;18974;50.838;4.636;2023-11-19T17:42:07;29.77;;;5.75;;
32535;SDS011;18974;50.838;4.636;2023-11-19T17:44:33;26.73;;;4.80;;
32535;SDS011;18974;50.838;4.636;2023-11-19T17:47:00;34.45;;;5.40;;
32535;SDS011;18974;50.838;4.636;2023-11-19T17:49:28;34.67;;;5.85;;
32535;SDS011;18974;50.838;4.636;2023-11-19T17:51:54;36.03;;;5.90;;
32535;SDS011;18974;50.838;4.636;2023-11-19T17:54:20;27.60;;;6.35;;
32535;SDS011;18974;50.838;4.636;2023-11-19T17:56:46;33.55;;;5.82;;
32535;SDS011;18974;50.838;4.636;2023-11-19T17:59:11;37.90;;;6.25;;
32535;SDS011;18974;50.838;4.636;2023-11-19T18:01:40;26.38;;;4.55;;
32535;SDS011;18974;50.838;4.636;2023-11-19T18:04:06;28.25;;;5.07;;
32535;SDS011;18974;50.838;4.636;2023-11-19T18:06:31;30.38;;;5.28;;
32535;SDS011;18974;50.838;4.636;2023-11-19T18:08:59;22.42;;;4.38;;
32535;SDS011;18974;50.838;4.636;2023-11-19T18:11:26;27.00;;;5.75;;
32535;SDS011;18974;50.838;4.636;2023-11-19T18:13:52;28.40;;;4.90;;
32535;SDS011;18974;50.838;4.636;2023-11-19T18:16:19;30.30;;;4.90;;
32535;SDS011;18974;50.838;4.636;2023-11-19T18:18:45;28.48;;;4.80;;
32535;SDS011;18974;50.838;4.636;2023-11-19T18:21:12;26.10;;;4.28;;
32535;SDS011;18974;50.838;4.636;2023-11-19T18:23:37;25.80;;;3.97;;
32535;SDS011;18974;50.838;4.636;2023-11-19T18:26:04;25.70;;;3.95;;
32535;SDS011;18974;50.838;4.636;2023-11-19T18:28:31;19.73;;;3.67;;
32535;SDS011;18974;50.838;4.636;2023-11-19T18:30:56;20.95;;;4.35;;
32535;SDS011;18974;50.838;4.636;2023-11-19T18:33:22;21.30;;;4.28;;
32535;SDS011;18974;50.838;4.636;2023-11-19T18:35:48;26.38;;;4.63;;
32535;SDS011;18974;50.838;4.636;2023-11-19T18:38:14;21.85;;;3.75;;
32535;SDS011;18974;50.838;4.636;2023-11-19T18:40:40;18.85;;;4.10;;
32535;SDS011;18974;50.838;4.636;2023-11-19T18:43:05;30.83;;;4.60;;
32535;SDS011;18974;50.838;4.636;2023-11-19T18:45:31;21.23;;;3.90;;
32535;SDS011;18974;50.838;4.636;2023-11-19T18:47:57;25.17;;;4.72;;
32535;SDS011;18974;50.838;4.636;2023-11-19T18:50:24;30.20;;;5.82;;
32535;SDS011;18974;50.838;4.636;2023-11-19T18:52:50;30.92;;;4.88;;
32535;SDS011;18974;50.838;4.636;2023-11-19T18:55:15;28.33;;;4.95;;
32535;SDS011;18974;50.838;4.636;2023-11-19T18:57:41;32.60;;;4.88;;
32535;SDS011;18974;50.838;4.636;2023-11-19T19:00:07;25.65;;;4.40;;
32535;SDS011;18974;50.838;4.636;2023-11-19T19:02:36;31.73;;;4.38;;
32535;SDS011;18974;50.838;4.636;2023-11-19T19:05:03;28.33;;;4.65;;
32535;SDS011;18974;50.838;4.636;2023-11-19T19:07:30;26.10;;;4.20;;
32535;SDS011;18974;50.838;4.636;2023-11-19T19:09:56;27.33;;;4.78;;
32535;SDS011;18974;50.838;4.636;2023-11-19T19:12:22;23.67;;;4.18;;
32535;SDS011;18974;50.838;4.636;2023-11-19T19:14:48;24.02;;;4.38;;
32535;SDS011;18974;50.838;4.636;2023-11-19T19:17:14;22.98;;;4.70;;
32535;SDS011;18974;50.838;4.636;2023-11-19T19:19:41;21.20;;;4.10;;
32535;SDS011;18974;50.838;4.636;2023-11-19T19:22:06;23.65;;;4.13;;
32535;SDS011;18974;50.838;4.636;2023-11-19T19:24:32;28.30;;;4.35;;
32535;SDS011;18974;50.838;4.636;2023-11-19T19:26:58;20.40;;;3.70;;
32535;SDS011;18974;50.838;4.636;2023-11-19T19:29:23;22.23;;;3.88;;
32535;SDS011;18974;50.838;4.636;2023-11-19T19:31:49;24.35;;;4.25;;
32535;SDS011;18974;50.838;4.636;2023-11-19T19:34:15;18.55;;;3.70;;
32535;SDS011;18974;50.838;4.636;2023-11-19T19:36:40;21.58;;;4.25;;
32535;SDS011;18974;50.838;4.636;2023-11-19T19:39:06;24.02;;;4.30;;
32535;SDS011;18974;50.838;4.636;2023-11-19T19:41:39;17.23;;;3.58;;
32535;SDS011;18974;50.838;4.636;2023-11-19T19:44:09;26.35;;;3.92;;
32535;SDS011;18974;50.838;4.636;2023-11-19T19:46:37;19.88;;;3.08;;
32535;SDS011;18974;50.838;4.636;2023-11-19T19:49:03;19.30;;;3.28;;
32535;SDS011;18974;50.838;4.636;2023-11-19T19:51:30;22.23;;;4.07;;
32535;SDS011;18974;50.838;4.636;2023-11-19T19:53:56;19.42;;;3.28;;
32535;SDS011;18974;50.838;4.636;2023-11-19T19:56:21;22.88;;;3.65;;